createdAt,value
2017-09-13T00:01:28.269Z,62.61
2017-09-13T00:03:55.419Z,62.35
2017-09-13T00:06:21.854Z,62.30
2017-09-13T00:08:48.290Z,62.38
2017-09-13T00:11:14.723Z,62.43
2017-09-13T00:13:41.159Z,62.43
2017-09-13T00:16:07.696Z,62.33
2017-09-13T00:18:34.131Z,62.52
2017-09-13T00:21:01.231Z,62.66
2017-09-13T00:23:27.714Z,62.74
2017-09-13T00:25:54.098Z,62.70
2017-09-13T00:28:20.449Z,63.20
2017-09-13T00:30:46.917Z,63.12
2017-09-13T00:33:13.355Z,63.57
2017-09-13T00:35:39.791Z,64.03
2017-09-13T00:38:06.943Z,62.91
2017-09-13T00:40:33.479Z,63.05
2017-09-13T00:42:59.913Z,62.96
2017-09-13T00:45:26.299Z,62.53
2017-09-13T00:47:52.764Z,62.82
2017-09-13T00:50:19.218Z,63.30
2017-09-13T00:52:45.672Z,63.23
2017-09-13T00:55:12.804Z,63.28
2017-09-13T00:57:39.261Z,63.13
2017-09-13T01:00:05.655Z,63.34
2017-09-13T01:02:32.110Z,63.81
2017-09-13T01:04:58.545Z,63.88
2017-09-13T01:07:25.001Z,64.02
2017-09-13T01:09:51.414Z,64.14
2017-09-13T01:12:18.566Z,64.17
2017-09-13T01:14:45.003Z,64.65
2017-09-13T01:17:11.436Z,64.95
2017-09-13T01:19:37.870Z,64.69
2017-09-13T01:22:04.308Z,64.87
2017-09-13T01:24:30.742Z,64.57
2017-09-13T01:26:57.196Z,64.21
2017-09-13T01:29:24.310Z,64.22
2017-09-13T01:31:50.761Z,64.26
2017-09-13T01:34:17.198Z,64.09
2017-09-13T01:36:43.734Z,64.26
2017-09-13T01:39:10.169Z,64.32
2017-09-13T01:41:36.604Z,64.82
2017-09-13T01:44:02.962Z,64.50
2017-09-13T01:46:30.164Z,64.30
2017-09-13T01:48:56.627Z,64.12
2017-09-13T01:51:23.025Z,63.90
2017-09-13T01:53:49.495Z,63.94
2017-09-13T01:56:15.930Z,63.96
2017-09-13T01:58:42.315Z,65.09
2017-09-13T02:01:08.798Z,65.12
2017-09-13T02:03:35.953Z,65.09
2017-09-13T02:06:02.338Z,65.33
2017-09-13T02:08:28.742Z,65.31
2017-09-13T02:10:55.155Z,65.35
2017-09-13T02:13:21.589Z,65.32
2017-09-13T02:15:47.971Z,65.37
2017-09-13T02:18:14.406Z,65.79
2017-09-13T02:20:41.509Z,65.96
2017-09-13T02:23:07.965Z,65.98
2017-09-13T02:25:34.489Z,65.95
2017-09-13T02:28:00.915Z,65.98
2017-09-13T02:30:27.351Z,66.19
2017-09-13T02:32:53.789Z,66.17
2017-09-13T02:35:20.277Z,66.06
2017-09-13T02:37:47.372Z,66.01
2017-09-13T02:40:13.808Z,65.95
2017-09-13T02:42:40.192Z,65.66
2017-09-13T02:45:06.665Z,65.28
2017-09-13T02:47:33.122Z,65.25
2017-09-13T02:49:59.568Z,65.39
2017-09-13T02:52:26.085Z,65.42
2017-09-13T02:54:53.237Z,65.15
2017-09-13T02:57:19.773Z,65.07
2017-09-13T02:59:46.311Z,64.96
2017-09-13T03:02:12.691Z,65.67
2017-09-13T03:04:39.154Z,66.11
2017-09-13T03:07:05.615Z,66.35
2017-09-13T03:09:32.050Z,65.89
2017-09-13T03:11:59.201Z,65.73
2017-09-13T03:14:25.625Z,65.64
2017-09-13T03:16:52.069Z,65.94
2017-09-13T03:19:18.507Z,66.13
2017-09-13T03:21:44.941Z,66.32
2017-09-13T03:24:11.378Z,66.25
2017-09-13T03:26:37.759Z,66.19
2017-09-13T03:29:05.065Z,65.92
2017-09-13T03:31:31.462Z,65.75
2017-09-13T03:33:57.833Z,65.78
2017-09-13T03:36:24.267Z,65.46
2017-09-13T03:38:50.703Z,65.05
2017-09-13T03:41:17.138Z,64.57
2017-09-13T03:43:43.572Z,64.46
2017-09-13T03:46:10.826Z,64.58
2017-09-13T03:48:37.261Z,64.98
2017-09-13T03:51:03.696Z,65.98
2017-09-13T03:53:30.130Z,66.17
2017-09-13T03:55:56.480Z,65.82
2017-09-13T03:58:22.995Z,65.41
2017-09-13T04:00:49.541Z,65.78
2017-09-13T04:03:16.579Z,65.04
2017-09-13T04:05:42.971Z,64.87
2017-09-13T04:08:09.457Z,64.15
2017-09-13T04:10:35.895Z,64.45
2017-09-13T04:13:02.349Z,64.53
2017-09-13T04:15:28.966Z,64.27
2017-09-13T04:17:55.404Z,64.36
2017-09-13T04:20:21.856Z,65.13
2017-09-13T04:22:48.245Z,64.90
2017-09-13T04:25:14.688Z,64.63
2017-09-13T04:27:41.132Z,64.20
2017-09-13T04:30:07.583Z,64.07
2017-09-13T04:32:34.014Z,64.69
2017-09-13T04:35:00.445Z,65.43
2017-09-13T04:37:27.597Z,64.73
2017-09-13T04:39:54.033Z,65.65
2017-09-13T04:42:20.467Z,65.70
2017-09-13T04:44:46.902Z,65.45
2017-09-13T04:47:13.337Z,65.37
2017-09-13T04:49:39.790Z,65.35
2017-09-13T04:52:06.207Z,64.56
2017-09-13T04:54:33.461Z,64.16
2017-09-13T04:56:59.896Z,63.74
2017-09-13T04:59:26.331Z,63.34
2017-09-13T05:01:52.773Z,62.55
2017-09-13T05:04:19.156Z,62.48
2017-09-13T05:06:45.635Z,61.88
2017-09-13T05:09:12.071Z,61.98
2017-09-13T05:11:39.324Z,62.17
2017-09-13T05:14:05.759Z,62.43
2017-09-13T05:16:32.194Z,62.29
2017-09-13T05:18:58.626Z,62.16
2017-09-13T05:21:25.026Z,61.79
2017-09-13T05:23:51.487Z,61.57
2017-09-13T05:26:17.929Z,61.47
2017-09-13T05:28:45.085Z,61.14
2017-09-13T05:31:11.515Z,60.97
2017-09-13T05:33:37.955Z,60.40
2017-09-13T05:36:04.390Z,59.87
2017-09-13T05:38:30.825Z,59.45
2017-09-13T05:40:57.260Z,59.05
2017-09-13T05:43:23.696Z,58.87
2017-09-13T05:45:50.951Z,58.68
2017-09-13T05:48:17.383Z,58.96
2017-09-13T05:50:43.767Z,59.13
2017-09-13T05:53:10.253Z,59.08
2017-09-13T05:55:36.689Z,58.80
2017-09-13T05:58:03.534Z,58.66
2017-09-13T06:00:29.956Z,58.44
2017-09-13T06:02:56.351Z,58.01
2017-09-13T06:05:22.813Z,57.46
2017-09-13T06:07:49.256Z,56.65
2017-09-13T06:10:15.763Z,56.27
2017-09-13T06:12:42.201Z,55.45
2017-09-13T06:15:08.659Z,55.19
2017-09-13T06:17:35.319Z,54.52
2017-09-13T06:20:01.754Z,53.97
2017-09-13T06:22:28.189Z,53.45
2017-09-13T06:24:54.581Z,52.49
2017-09-13T06:27:21.051Z,52.45
2017-09-13T06:29:47.593Z,52.28
2017-09-13T06:32:14.033Z,52.90
2017-09-13T06:34:40.570Z,52.62
2017-09-13T06:37:07.252Z,52.70
2017-09-13T06:39:33.847Z,53.00
2017-09-13T06:42:00.245Z,53.12
2017-09-13T06:44:27.036Z,53.29
2017-09-13T06:46:53.461Z,53.24
2017-09-13T06:49:19.859Z,53.51
2017-09-13T06:51:46.534Z,52.93
2017-09-13T06:54:12.972Z,53.32
2017-09-13T06:56:39.404Z,54.09
2017-09-13T06:59:06.044Z,54.57
2017-09-13T07:01:32.420Z,54.68
2017-09-13T07:03:58.913Z,54.76
2017-09-13T07:06:25.374Z,54.42
2017-09-13T07:08:51.885Z,53.73
2017-09-13T07:11:18.383Z,54.07
2017-09-13T07:13:45.060Z,53.83
2017-09-13T07:16:11.495Z,53.44
2017-09-13T07:18:38.033Z,53.54
2017-09-13T07:21:04.670Z,53.19
2017-09-13T07:23:31.107Z,52.29
2017-09-13T07:25:57.644Z,51.86
2017-09-13T07:28:24.235Z,51.78
2017-09-13T07:30:50.679Z,51.55
2017-09-13T07:33:18.178Z,51.11
2017-09-13T07:35:44.612Z,50.48
2017-09-13T07:38:11.047Z,50.09
2017-09-13T07:40:37.892Z,50.03
2017-09-13T07:43:04.328Z,49.63
2017-09-13T07:45:30.717Z,49.52
2017-09-13T07:47:57.307Z,49.12
2017-09-13T07:50:23.834Z,48.82
2017-09-13T07:52:50.269Z,48.18
2017-09-13T07:55:17.092Z,47.65
2017-09-13T07:57:43.655Z,47.70
2017-09-13T08:00:10.700Z,47.91
2017-09-13T08:02:38.371Z,48.43
2017-09-13T08:05:04.964Z,48.59
2017-09-13T08:07:31.545Z,48.22
2017-09-13T08:09:58.100Z,48.02
2017-09-13T08:12:24.466Z,48.28
2017-09-13T08:14:50.846Z,47.83
2017-09-13T08:17:18.418Z,48.55
2017-09-13T08:19:45.150Z,47.80
2017-09-13T08:22:11.599Z,48.03
2017-09-13T08:24:38.487Z,47.81
2017-09-13T08:27:05.070Z,47.70
2017-09-13T08:29:31.591Z,48.47
2017-09-13T08:31:58.351Z,48.17
2017-09-13T08:34:24.885Z,48.89
2017-09-13T08:36:51.320Z,47.77
2017-09-13T08:39:18.373Z,47.89
2017-09-13T08:41:45.234Z,47.36
2017-09-13T08:44:11.751Z,47.99
2017-09-13T08:46:38.341Z,47.62
2017-09-13T08:49:04.959Z,46.94
2017-09-13T08:51:31.620Z,46.81
2017-09-13T08:53:58.518Z,47.43
2017-09-13T08:56:25.154Z,47.15
2017-09-13T08:58:51.692Z,47.20
2017-09-13T09:01:19.123Z,46.43
2017-09-13T09:03:45.689Z,46.13
2017-09-13T09:06:12.132Z,45.93
2017-09-13T09:08:39.583Z,45.06
2017-09-13T09:11:06.018Z,46.13
2017-09-13T09:13:32.451Z,45.84
2017-09-13T09:15:59.657Z,46.05
2017-09-13T09:18:26.141Z,45.26
2017-09-13T09:20:52.986Z,45.23
2017-09-13T09:23:19.932Z,43.75
2017-09-13T09:25:46.376Z,43.91
2017-09-13T09:28:13.225Z,44.69
2017-09-13T09:30:40.056Z,44.20
2017-09-13T09:33:06.595Z,43.23
2017-09-13T09:35:33.201Z,43.18
2017-09-13T09:37:59.770Z,42.52
2017-09-13T09:40:26.211Z,42.03
2017-09-13T09:42:53.152Z,41.06
2017-09-13T09:45:19.894Z,39.82
2017-09-13T09:47:46.536Z,39.51
2017-09-13T09:50:13.178Z,38.45
2017-09-13T09:52:40.019Z,40.00
2017-09-13T09:55:06.761Z,40.41
2017-09-13T09:57:33.300Z,40.69
2017-09-13T09:59:59.727Z,40.62
2017-09-13T10:02:26.173Z,41.20
2017-09-13T10:04:52.813Z,41.62
2017-09-13T10:07:19.532Z,42.10
2017-09-13T10:09:46.031Z,41.55
2017-09-13T10:12:12.653Z,41.76
2017-09-13T10:14:39.469Z,41.53
2017-09-13T10:17:06.065Z,41.43
2017-09-13T10:19:32.960Z,41.60
2017-09-13T10:21:59.490Z,40.85
2017-09-13T10:24:26.030Z,41.06
2017-09-13T10:26:52.411Z,42.11
2017-09-13T10:29:19.004Z,41.93
2017-09-13T10:31:45.639Z,42.47
2017-09-13T10:34:12.483Z,43.17
2017-09-13T10:36:39.070Z,43.07
2017-09-13T10:39:05.507Z,42.96
2017-09-13T10:41:31.981Z,43.24
2017-09-13T10:43:58.428Z,42.91
2017-09-13T10:46:24.863Z,43.35
2017-09-13T10:48:51.298Z,43.06
2017-09-13T10:51:17.679Z,43.36
2017-09-13T10:53:44.065Z,43.15
2017-09-13T10:56:10.519Z,41.98
2017-09-13T10:58:37.037Z,42.47
2017-09-13T11:01:03.474Z,42.78
2017-09-13T11:03:29.908Z,42.72
2017-09-13T11:05:56.292Z,42.16
2017-09-13T11:08:22.778Z,42.30
2017-09-13T11:10:49.197Z,41.59
2017-09-13T11:13:16.061Z,41.02
2017-09-13T11:15:42.618Z,40.94
2017-09-13T11:18:09.249Z,40.75
2017-09-13T11:20:35.644Z,40.24
2017-09-13T11:23:02.206Z,40.76
2017-09-13T11:25:28.642Z,40.32
2017-09-13T11:27:55.077Z,39.26
2017-09-13T11:30:21.511Z,39.78
2017-09-13T11:32:48.051Z,38.89
2017-09-13T11:35:14.588Z,38.66
2017-09-13T11:37:41.086Z,38.41
2017-09-13T11:40:07.558Z,38.64
2017-09-13T11:42:34.300Z,36.80
2017-09-13T11:45:00.735Z,36.86
2017-09-13T11:47:27.170Z,35.73
2017-09-13T11:49:54.159Z,34.92
2017-09-13T11:52:20.854Z,34.76
2017-09-13T11:54:47.400Z,34.57
2017-09-13T11:57:14.389Z,33.88
2017-09-13T11:59:40.856Z,33.95
2017-09-13T12:02:08.018Z,34.66
2017-09-13T12:04:34.599Z,35.02
2017-09-13T12:07:01.413Z,35.60
2017-09-13T12:09:27.952Z,34.78
2017-09-13T12:14:27.272Z,32.64
2017-09-13T12:16:53.785Z,31.69
2017-09-13T12:19:20.359Z,31.57
2017-09-13T12:21:47.089Z,32.43
2017-09-13T12:24:13.581Z,32.14
2017-09-13T12:26:40.006Z,31.58
2017-09-13T12:29:06.652Z,31.43
2017-09-13T12:31:33.341Z,32.97
2017-09-13T12:33:59.877Z,32.73
2017-09-13T12:36:26.722Z,33.12
2017-09-13T12:38:53.157Z,32.33
2017-09-13T12:41:19.592Z,30.49
2017-09-13T12:43:46.282Z,28.97
2017-09-13T12:46:13.078Z,27.63
2017-09-13T12:48:39.614Z,27.52
2017-09-13T12:51:06.514Z,27.96
2017-09-13T12:53:32.892Z,27.95
2017-09-13T12:55:59.327Z,26.98
2017-09-13T12:58:25.865Z,26.39
2017-09-13T13:00:52.300Z,25.91
2017-09-13T13:03:19.144Z,26.16
2017-09-13T13:05:45.580Z,25.99
2017-09-13T13:08:12.218Z,25.93
2017-09-13T13:10:38.654Z,26.26
2017-09-13T13:13:05.501Z,25.11
2017-09-13T13:15:32.001Z,24.43
2017-09-13T13:17:58.880Z,24.52
2017-09-13T13:20:25.522Z,24.85
2017-09-13T13:22:51.955Z,26.35
2017-09-13T13:25:18.698Z,27.21
2017-09-13T13:27:45.538Z,27.05
2017-09-13T13:30:11.977Z,27.99
2017-09-13T13:32:38.412Z,28.82
2017-09-13T13:35:05.307Z,29.75
2017-09-13T13:37:32.715Z,30.57
2017-09-13T13:39:59.170Z,31.54
2017-09-13T13:42:26.507Z,32.67
2017-09-13T13:44:52.943Z,32.38
2017-09-13T13:47:19.478Z,30.60
2017-09-13T13:49:45.950Z,29.67
2017-09-13T13:52:12.456Z,28.67
2017-09-13T13:54:39.091Z,28.50
2017-09-13T13:57:05.526Z,28.23
2017-09-13T13:59:31.962Z,27.27
2017-09-13T14:01:58.967Z,26.67
2017-09-13T14:04:25.444Z,25.97
2017-09-13T14:06:51.836Z,26.72
2017-09-13T14:09:18.518Z,26.34
2017-09-13T14:11:45.538Z,26.23
2017-09-13T14:14:12.004Z,26.59
2017-09-13T14:16:38.684Z,28.20
2017-09-13T14:19:05.179Z,28.96
2017-09-13T14:21:31.717Z,29.77
2017-09-13T14:23:58.575Z,30.19
2017-09-13T14:26:24.997Z,30.54
2017-09-13T14:28:51.739Z,31.47
2017-09-13T14:31:18.714Z,32.29
2017-09-13T14:33:45.533Z,33.04
2017-09-13T14:36:11.923Z,33.01
2017-09-13T14:38:38.521Z,33.84
2017-09-13T14:41:05.449Z,34.24
2017-09-13T14:43:31.885Z,34.75
2017-09-13T14:45:58.328Z,35.00
2017-09-13T14:48:25.610Z,35.34
2017-09-13T14:50:52.116Z,35.42
2017-09-13T14:53:18.759Z,35.37
2017-09-13T14:55:45.308Z,35.81
2017-09-13T14:58:12.235Z,35.96
2017-09-13T15:00:38.669Z,35.81
2017-09-13T15:03:05.105Z,35.90
2017-09-13T15:05:31.539Z,36.24
2017-09-13T15:07:57.973Z,36.22
2017-09-13T15:10:24.410Z,36.48
2017-09-13T15:12:50.844Z,36.70
2017-09-13T15:15:17.279Z,36.79
2017-09-13T15:17:43.650Z,36.48
2017-09-13T15:20:10.148Z,36.10
2017-09-13T15:22:36.532Z,36.25
2017-09-13T15:25:02.916Z,36.55
2017-09-13T15:27:29.351Z,36.47
2017-09-13T15:29:56.624Z,36.89
2017-09-13T15:32:23.040Z,37.48
2017-09-13T15:34:49.475Z,37.46
2017-09-13T15:37:15.909Z,37.86
2017-09-13T15:39:46.584Z,38.27
2017-09-13T15:42:24.526Z,38.17
2017-09-13T15:44:58.515Z,38.58
2017-09-13T15:47:31.597Z,38.73
2017-09-13T15:49:58.703Z,38.93
2017-09-13T15:52:25.047Z,39.26
2017-09-13T15:54:51.473Z,39.32
2017-09-13T15:57:17.904Z,39.76
2017-09-13T15:59:44.341Z,39.72
2017-09-13T16:02:10.775Z,39.77
2017-09-13T16:04:37.171Z,40.19
2017-09-13T16:07:03.644Z,40.31
2017-09-13T16:09:30.081Z,40.26
2017-09-13T16:11:56.514Z,40.28
2017-09-13T16:14:23.783Z,40.59
2017-09-13T16:16:50.203Z,40.97
2017-09-13T16:19:16.622Z,40.69
2017-09-13T16:21:43.073Z,40.97
2017-09-13T16:24:09.509Z,41.22
2017-09-13T16:26:35.944Z,41.19
2017-09-13T16:29:02.378Z,41.38
2017-09-13T16:31:29.479Z,41.54
2017-09-13T16:33:55.964Z,41.88
2017-09-13T16:36:22.352Z,41.99
2017-09-13T16:38:48.839Z,42.33
2017-09-13T16:41:15.270Z,42.24
2017-09-13T16:43:41.708Z,42.24
2017-09-13T16:46:08.142Z,42.42
2017-09-13T16:48:35.337Z,42.46
2017-09-13T16:51:01.828Z,42.26
2017-09-13T16:53:28.366Z,42.53
2017-09-13T16:55:54.802Z,42.72
2017-09-13T16:58:21.236Z,43.11
2017-09-13T17:00:47.669Z,42.72
2017-09-13T17:03:14.105Z,42.82
2017-09-13T17:05:41.306Z,42.78
2017-09-13T17:08:07.794Z,42.79
2017-09-13T17:10:34.226Z,42.88
2017-09-13T17:13:00.664Z,42.95
2017-09-13T17:15:27.100Z,42.91
2017-09-13T17:17:53.534Z,42.94
2017-09-13T17:20:19.969Z,43.05
2017-09-13T17:22:47.121Z,43.06
2017-09-13T17:25:13.555Z,43.14
2017-09-13T17:27:39.973Z,43.32
2017-09-13T17:30:06.323Z,43.60
2017-09-13T17:32:32.703Z,43.55
2017-09-13T17:34:59.090Z,43.70
2017-09-13T17:37:25.627Z,43.68
2017-09-13T17:39:52.712Z,43.81
2017-09-13T17:42:19.113Z,43.95
2017-09-13T17:44:45.546Z,44.19
2017-09-13T17:47:11.983Z,43.98
2017-09-13T17:49:38.423Z,43.82
2017-09-13T17:52:04.851Z,43.89
2017-09-13T17:54:31.286Z,44.67
2017-09-13T17:56:58.386Z,45.01
2017-09-13T17:59:24.770Z,45.13
2017-09-13T18:01:51.205Z,45.53
2017-09-13T18:04:17.640Z,45.65
2017-09-13T18:06:44.075Z,45.43
2017-09-13T18:09:10.439Z,45.84
2017-09-13T18:11:36.843Z,45.51
2017-09-13T18:14:04.199Z,45.77
2017-09-13T18:16:30.604Z,46.30
2017-09-13T18:18:57.071Z,46.91
2017-09-13T18:21:23.504Z,46.68
2017-09-13T18:23:49.938Z,46.85
2017-09-13T18:26:16.375Z,47.52
2017-09-13T18:28:42.808Z,47.76
2017-09-13T18:31:09.858Z,47.58
2017-09-13T18:33:36.279Z,47.47
2017-09-13T18:36:02.728Z,48.11
2017-09-13T18:38:29.161Z,48.20
2017-09-13T18:40:55.597Z,48.28
2017-09-13T18:43:22.027Z,48.39
2017-09-13T18:45:48.374Z,48.53
2017-09-13T18:48:15.619Z,48.46
2017-09-13T18:50:42.053Z,48.64
2017-09-13T18:53:08.488Z,48.98
2017-09-13T18:55:35.025Z,48.24
2017-09-13T18:58:01.457Z,48.65
2017-09-13T19:00:27.896Z,49.18
2017-09-13T19:02:54.331Z,49.02
2017-09-13T19:05:21.585Z,48.92
2017-09-13T19:07:48.023Z,49.18
2017-09-13T19:10:14.403Z,49.38
2017-09-13T19:12:40.889Z,49.40
2017-09-13T19:15:07.326Z,49.33
2017-09-13T19:17:33.761Z,49.46
2017-09-13T19:20:00.200Z,50.08
2017-09-13T19:22:27.346Z,50.14
2017-09-13T19:24:53.781Z,50.50
2017-09-13T19:27:20.222Z,50.78
2017-09-13T19:29:46.677Z,51.04
2017-09-13T19:32:13.087Z,50.89
2017-09-13T19:34:39.524Z,51.01
2017-09-13T19:37:05.959Z,51.38
2017-09-13T19:39:33.107Z,52.04
2017-09-13T19:41:59.501Z,52.15
2017-09-13T19:44:25.977Z,52.65
2017-09-13T19:46:52.413Z,52.91
2017-09-13T19:49:18.852Z,53.04
2017-09-13T19:51:45.282Z,53.32
2017-09-13T19:54:11.731Z,52.80
2017-09-13T19:56:38.888Z,52.66
2017-09-13T19:59:05.303Z,52.70
2017-09-13T20:01:31.759Z,53.07
2017-09-13T20:03:58.173Z,53.02
2017-09-13T20:06:24.604Z,53.33
2017-09-13T20:08:51.043Z,53.16
2017-09-13T20:11:17.478Z,53.34
2017-09-13T20:13:44.629Z,53.54
2017-09-13T20:16:11.063Z,53.77
2017-09-13T20:18:37.499Z,54.07
2017-09-13T20:21:03.939Z,53.87
2017-09-13T20:23:30.371Z,54.15
2017-09-13T20:25:56.804Z,54.49
2017-09-13T20:28:23.239Z,54.52
2017-09-13T20:30:50.493Z,54.23
2017-09-13T20:33:16.927Z,54.69
2017-09-13T20:35:43.381Z,54.67
2017-09-13T20:38:09.806Z,54.77
2017-09-13T20:40:36.232Z,55.04
2017-09-13T20:43:02.666Z,55.33
2017-09-13T20:45:29.101Z,55.67
2017-09-13T20:47:56.253Z,56.01
2017-09-13T20:50:22.639Z,55.77
2017-09-13T20:52:49.123Z,56.19
2017-09-13T20:55:15.558Z,56.69
2017-09-13T20:57:41.993Z,56.86
2017-09-13T21:00:08.419Z,57.43
2017-09-13T21:02:34.836Z,57.40
2017-09-13T21:05:02.015Z,57.34
2017-09-13T21:07:28.404Z,57.86
2017-09-13T21:09:54.885Z,57.58
2017-09-13T21:12:21.307Z,57.84
2017-09-13T21:14:47.754Z,58.04
2017-09-13T21:17:14.188Z,58.12
2017-09-13T21:19:40.624Z,58.08
2017-09-13T21:22:07.753Z,57.76
2017-09-13T21:24:34.197Z,58.26
2017-09-13T21:27:00.639Z,58.36
2017-09-13T21:29:27.081Z,58.55
2017-09-13T21:31:53.515Z,58.68
2017-09-13T21:34:19.950Z,58.91
2017-09-13T21:36:46.386Z,58.92
2017-09-13T21:39:13.652Z,59.11
2017-09-13T21:41:40.012Z,59.42
2017-09-13T21:44:06.356Z,59.58
2017-09-13T21:46:32.829Z,59.70
2017-09-13T21:48:59.273Z,59.72
2017-09-13T21:51:25.916Z,59.67
2017-09-13T21:53:52.351Z,59.51
2017-09-13T21:56:18.786Z,59.88
2017-09-13T21:58:45.323Z,60.04
2017-09-13T22:01:11.758Z,59.82
2017-09-13T22:03:38.910Z,60.27
2017-09-13T22:08:36.597Z,61.19
2017-09-13T22:11:03.137Z,61.14
2017-09-13T22:13:29.570Z,60.98
2017-09-13T22:15:55.999Z,60.47
2017-09-13T22:18:22.435Z,60.18
2017-09-13T22:20:48.818Z,60.38
2017-09-13T22:23:15.304Z,60.79
2017-09-13T22:25:41.841Z,61.19
2017-09-13T22:28:08.277Z,61.06
2017-09-13T22:30:35.429Z,61.03
2017-09-13T22:33:01.863Z,61.34
2017-09-13T22:35:28.297Z,61.58
2017-09-13T22:37:54.733Z,61.52
2017-09-13T22:40:21.168Z,61.18
2017-09-13T22:42:47.603Z,61.43
2017-09-13T22:45:14.038Z,61.49
2017-09-13T22:47:41.087Z,61.45
2017-09-13T22:50:07.522Z,61.26
2017-09-13T22:52:33.957Z,61.52
2017-09-13T22:55:00.375Z,61.81
2017-09-13T22:57:26.817Z,61.72
2017-09-13T22:59:53.261Z,61.95
2017-09-13T23:02:19.699Z,62.24
2017-09-13T23:04:46.849Z,62.59
2017-09-13T23:07:13.282Z,62.83
2017-09-13T23:09:39.739Z,62.90
2017-09-13T23:12:06.261Z,63.24
2017-09-13T23:14:32.640Z,63.67
2017-09-13T23:16:59.127Z,63.37
2017-09-13T23:19:25.526Z,63.00
2017-09-13T23:21:52.814Z,62.67
2017-09-13T23:24:19.249Z,62.42
2017-09-13T23:26:45.781Z,62.62
2017-09-13T23:29:12.221Z,63.21
2017-09-13T23:31:38.674Z,63.78
2017-09-13T23:34:05.091Z,64.24
2017-09-13T23:36:31.644Z,64.25
2017-09-13T23:38:58.574Z,64.08
2017-09-13T23:41:25.010Z,64.13
2017-09-13T23:43:51.445Z,63.94
2017-09-13T23:46:17.881Z,64.42
2017-09-13T23:48:44.263Z,64.39
2017-09-13T23:51:10.749Z,64.16
2017-09-13T23:53:37.185Z,63.90
2017-09-13T23:56:04.438Z,63.90
2017-09-13T23:58:30.876Z,63.70
